createdAt,value
2022-08-04T00:02:09.414Z,3.80
2022-08-04T00:04:51.423Z,3.50
2022-08-04T00:07:47.597Z,3.60
2022-08-04T00:10:18.150Z,3.27
2022-08-04T00:12:51.836Z,3.47
2022-08-04T00:15:19.772Z,3.53
2022-08-04T00:18:00.015Z,3.77
2022-08-04T00:20:32.384Z,3.60
2022-08-04T00:23:01.141Z,3.57
2022-08-04T00:25:28.845Z,3.30
2022-08-04T00:27:55.864Z,3.43
2022-08-04T00:30:22.982Z,3.87
2022-08-04T00:32:51.341Z,3.60
2022-08-04T00:35:18.604Z,3.33
2022-08-04T00:37:46.345Z,3.50
2022-08-04T00:40:18.789Z,3.80
2022-08-04T00:42:59.091Z,3.97
2022-08-04T00:46:16.896Z,3.63
2022-08-04T00:48:58.840Z,3.57
2022-08-04T00:51:38.507Z,3.30
2022-08-04T00:54:18.232Z,3.50
2022-08-04T00:56:50.865Z,3.60
2022-08-04T00:59:40.009Z,3.93
2022-08-04T01:02:25.003Z,3.63
2022-08-04T01:05:05.597Z,3.70
2022-08-04T01:07:52.899Z,3.80
2022-08-04T01:10:53.697Z,3.30
2022-08-04T01:14:00.425Z,4.00
2022-08-04T01:16:30.381Z,3.90
2022-08-04T01:19:12.894Z,3.60
2022-08-04T01:21:51.803Z,3.80
2022-08-04T01:24:31.303Z,3.77
2022-08-04T01:27:09.025Z,3.57
2022-08-04T01:29:49.298Z,3.63
2022-08-04T01:32:25.635Z,3.77
2022-08-04T01:35:00.247Z,3.90
2022-08-04T01:37:27.078Z,3.60
2022-08-04T01:40:05.610Z,3.73
2022-08-04T01:42:34.029Z,3.83
2022-08-04T01:45:08.758Z,3.67
2022-08-04T01:47:37.847Z,3.90
2022-08-04T01:50:12.850Z,3.70
2022-08-04T01:52:41.989Z,3.80
2022-08-04T01:55:12.119Z,3.63
2022-08-04T01:57:50.959Z,3.60
2022-08-04T02:00:21.153Z,3.60
2022-08-04T02:02:49.256Z,4.03
2022-08-04T02:05:18.233Z,3.90
2022-08-04T02:08:13.595Z,3.80
2022-08-04T02:10:43.548Z,3.63
2022-08-04T02:13:25.202Z,3.50
2022-08-04T02:16:01.735Z,4.00
2022-08-04T02:18:33.510Z,3.50
2022-08-04T02:21:04.557Z,3.73
2022-08-04T02:23:43.659Z,4.03
2022-08-04T02:26:22.518Z,4.30
2022-08-04T02:29:03.575Z,4.80
2022-08-04T02:31:46.183Z,3.70
2022-08-04T02:34:43.091Z,4.20
2022-08-04T02:37:18.761Z,4.20
2022-08-04T02:39:49.414Z,4.50
2022-08-04T02:42:17.553Z,4.00
2022-08-04T02:44:50.727Z,4.17
2022-08-04T02:47:21.722Z,4.50
2022-08-04T02:49:51.621Z,4.07
2022-08-04T02:52:20.841Z,4.03
2022-08-04T02:54:51.240Z,3.90
2022-08-04T02:57:22.872Z,3.93
2022-08-04T03:00:15.423Z,4.50
2022-08-04T03:03:02.866Z,4.43
2022-08-04T03:06:13.872Z,4.20
2022-08-04T03:08:47.834Z,12.50
2022-08-04T03:11:38.488Z,4.83
2022-08-04T03:14:05.355Z,4.87
2022-08-04T03:17:13.404Z,4.80
2022-08-04T03:19:46.076Z,4.93
2022-08-04T03:22:33.054Z,4.63
2022-08-04T03:25:36.921Z,4.63
2022-08-04T03:28:50.931Z,4.77
2022-08-04T03:31:44.345Z,4.83
2022-08-04T03:34:48.179Z,4.37
2022-08-04T03:38:13.654Z,4.70
2022-08-04T03:41:16.298Z,4.17
2022-08-04T03:44:35.388Z,4.20
2022-08-04T03:47:44.232Z,4.50
2022-08-04T03:50:30.474Z,4.10
2022-08-04T03:53:09.606Z,4.07
2022-08-04T03:55:57.451Z,4.10
2022-08-04T03:58:51.475Z,4.23
2022-08-04T04:02:01.269Z,3.80
2022-08-04T04:04:32.599Z,4.20
2022-08-04T04:07:18.038Z,4.27
2022-08-04T04:10:15.886Z,4.10
2022-08-04T04:13:13.493Z,4.53
2022-08-04T04:16:19.203Z,3.80
2022-08-04T04:18:56.634Z,4.00
2022-08-04T04:21:39.627Z,4.60
2022-08-04T04:24:06.894Z,4.20
2022-08-04T04:27:04.961Z,4.00
2022-08-04T04:29:58.033Z,4.23
2022-08-04T04:32:33.365Z,3.93
2022-08-04T04:35:19.232Z,4.63
2022-08-04T04:38:11.042Z,3.83
2022-08-04T04:40:59.715Z,3.80
2022-08-04T04:43:50.920Z,4.10
2022-08-04T04:46:42.849Z,3.90
2022-08-04T04:49:39.069Z,3.60
2022-08-04T04:52:15.109Z,4.77
2022-08-04T04:55:04.657Z,4.10
2022-08-04T04:57:54.611Z,4.17
2022-08-04T05:00:26.436Z,4.47
2022-08-04T05:03:09.219Z,4.40
2022-08-04T05:06:04.249Z,4.60
2022-08-04T05:08:43.542Z,5.07
2022-08-04T05:11:39.918Z,4.53
2022-08-04T05:14:35.129Z,4.73
2022-08-04T05:17:03.816Z,4.40
2022-08-04T05:19:51.746Z,4.43
2022-08-04T05:22:21.443Z,4.50
2022-08-04T05:24:51.825Z,4.57
2022-08-04T05:27:39.454Z,4.57
2022-08-04T05:30:08.221Z,4.60
2022-08-04T05:33:11.218Z,4.50
2022-08-04T05:36:16.923Z,4.30
2022-08-04T05:38:38.180Z,4.73
2022-08-04T05:41:06.806Z,4.70
2022-08-04T05:43:34.768Z,4.40
2022-08-04T05:46:02.756Z,3.90
2022-08-04T05:48:30.359Z,4.10
2022-08-04T05:51:00.998Z,4.10
2022-08-04T05:53:29.320Z,4.30
2022-08-04T05:55:59.530Z,3.93
2022-08-04T05:58:31.726Z,4.10
2022-08-04T06:01:00.948Z,4.10
2022-08-04T06:03:30.769Z,4.07
2022-08-04T06:05:58.565Z,3.87
2022-08-04T06:08:27.102Z,3.53
2022-08-04T06:10:56.132Z,3.57
2022-08-04T06:13:48.017Z,3.30
2022-08-04T06:16:29.171Z,3.60
2022-08-04T06:20:02.539Z,3.20
2022-08-04T06:21:50.349Z,4.13
2022-08-04T06:24:20.478Z,3.73
2022-08-04T06:26:49.740Z,3.43
2022-08-04T06:29:35.339Z,3.30
2022-08-04T06:32:29.637Z,4.00
2022-08-04T06:35:04.558Z,3.70
2022-08-04T06:37:42.917Z,3.20
2022-08-04T06:40:31.480Z,3.10
2022-08-04T06:43:06.974Z,3.50
2022-08-04T06:45:37.271Z,3.80
2022-08-04T06:48:06.515Z,3.50
2022-08-04T06:51:24.570Z,3.37
2022-08-04T06:53:24.134Z,3.03
2022-08-04T06:55:51.932Z,3.60
2022-08-04T06:58:21.925Z,3.60
2022-08-04T07:00:49.770Z,3.13
2022-08-04T07:03:18.765Z,2.97
2022-08-04T07:05:51.393Z,3.10
2022-08-04T07:08:19.569Z,3.10
2022-08-04T07:10:47.437Z,3.57
2022-08-04T07:13:14.905Z,2.93
2022-08-04T07:15:47.690Z,3.50
2022-08-04T07:18:14.894Z,3.60
2022-08-04T07:20:45.901Z,3.60
2022-08-04T07:23:17.677Z,3.70
2022-08-04T07:26:01.191Z,3.30
2022-08-04T07:28:40.108Z,3.93
2022-08-04T07:31:32.951Z,3.70
2022-08-04T07:34:17.768Z,3.43
2022-08-04T07:36:50.428Z,3.20
2022-08-04T07:39:28.336Z,3.40
2022-08-04T07:41:58.086Z,3.30
2022-08-04T07:44:25.489Z,2.93
2022-08-04T07:46:52.998Z,3.33
2022-08-04T07:49:55.933Z,2.83
2022-08-04T07:52:10.291Z,2.50
2022-08-04T07:54:39.198Z,2.53
2022-08-04T07:57:06.134Z,2.70
2022-08-04T07:59:33.556Z,2.60
2022-08-04T08:02:02.068Z,2.60
2022-08-04T08:04:29.787Z,2.20
2022-08-04T08:06:58.184Z,2.60
2022-08-04T08:09:25.290Z,2.53
2022-08-04T08:12:36.225Z,2.40
2022-08-04T08:14:41.293Z,2.27
2022-08-04T08:17:08.286Z,2.57
2022-08-04T08:19:36.001Z,2.53
2022-08-04T08:22:03.143Z,2.37
2022-08-04T08:24:31.174Z,2.50
2022-08-04T08:27:00.428Z,2.20
2022-08-04T08:29:29.646Z,2.40
2022-08-04T08:32:00.415Z,2.33
2022-08-04T08:34:31.150Z,2.50
2022-08-04T08:37:13.613Z,2.37
2022-08-04T08:39:49.352Z,2.23
2022-08-04T08:42:39.217Z,2.27
2022-08-04T08:45:18.199Z,2.20
2022-08-04T08:48:07.330Z,2.20
2022-08-04T08:50:46.313Z,2.30
2022-08-04T08:53:54.429Z,2.60
2022-08-04T08:57:06.087Z,2.27
2022-08-04T09:00:20.876Z,2.93
2022-08-04T09:03:28.873Z,2.07
2022-08-04T09:05:58.492Z,2.40
2022-08-04T09:08:33.972Z,2.40
2022-08-04T09:11:10.032Z,2.30
2022-08-04T09:13:58.342Z,2.03
2022-08-04T09:16:54.202Z,2.50
2022-08-04T09:19:38.909Z,2.43
2022-08-04T09:22:35.021Z,2.40
2022-08-04T09:25:13.931Z,2.20
2022-08-04T09:27:50.309Z,1.83
2022-08-04T09:30:20.657Z,2.53
2022-08-04T09:32:58.436Z,2.30
2022-08-04T09:35:53.853Z,1.77
2022-08-04T09:38:41.358Z,2.17
2022-08-04T09:41:48.207Z,2.20
2022-08-04T09:44:49.241Z,2.20
2022-08-04T09:47:39.675Z,2.43
2022-08-04T09:50:38.003Z,1.80
2022-08-04T09:53:23.349Z,1.70
2022-08-04T09:56:10.312Z,1.80
2022-08-04T09:58:58.614Z,1.60
2022-08-04T10:01:28.236Z,2.10
2022-08-04T10:04:09.992Z,1.70
2022-08-04T10:07:07.214Z,1.67
2022-08-04T10:10:01.585Z,1.70
2022-08-04T10:12:36.018Z,1.53
2022-08-04T10:15:36.286Z,1.43
2022-08-04T10:18:12.440Z,1.60
2022-08-04T10:20:50.850Z,1.77
2022-08-04T10:23:56.481Z,1.50
2022-08-04T10:26:33.415Z,1.50
2022-08-04T10:29:12.704Z,1.80
2022-08-04T10:31:59.822Z,1.90
2022-08-04T10:34:41.150Z,1.77
2022-08-04T10:37:59.755Z,1.30
2022-08-04T10:40:43.134Z,1.52
2022-08-04T10:43:25.702Z,1.33
2022-08-04T10:46:06.804Z,1.35
2022-08-04T10:48:35.034Z,1.20
2022-08-04T10:51:28.666Z,1.40
2022-08-04T10:54:06.612Z,1.40
2022-08-04T10:56:44.014Z,1.10
2022-08-04T10:59:19.194Z,1.23
2022-08-04T11:02:01.398Z,1.20
2022-08-04T11:04:44.592Z,1.17
2022-08-04T11:07:13.847Z,1.23
2022-08-04T11:09:44.180Z,1.10
2022-08-04T11:12:17.751Z,0.93
2022-08-04T11:15:01.574Z,1.17
2022-08-04T11:17:35.696Z,0.95
2022-08-04T11:20:35.239Z,1.20
2022-08-04T11:23:15.453Z,1.00
2022-08-04T11:25:52.143Z,1.10
2022-08-04T11:28:37.064Z,1.00
2022-08-04T11:31:14.235Z,1.10
2022-08-04T11:34:04.521Z,1.00
2022-08-04T11:37:01.326Z,0.90
2022-08-04T11:39:34.276Z,0.80
2022-08-04T11:42:15.814Z,1.05
2022-08-04T11:45:16.704Z,0.90
2022-08-04T11:47:51.247Z,0.88
2022-08-04T11:50:43.632Z,0.90
2022-08-04T11:53:16.942Z,0.85
2022-08-04T11:56:06.979Z,0.80
2022-08-04T11:58:33.147Z,0.80
2022-08-04T12:01:34.897Z,0.80
2022-08-04T12:04:04.876Z,0.80
2022-08-04T12:06:50.206Z,0.88
2022-08-04T12:09:56.385Z,0.80
2022-08-04T12:12:35.137Z,0.80
2022-08-04T12:15:20.875Z,0.70
2022-08-04T12:18:08.458Z,0.90
2022-08-04T12:20:48.909Z,0.70
2022-08-04T12:23:30.914Z,0.85
2022-08-04T12:26:04.043Z,0.80
2022-08-04T12:29:08.036Z,0.80
2022-08-04T12:31:29.767Z,1.10
2022-08-04T12:34:05.921Z,0.73
2022-08-04T12:36:45.286Z,0.82
2022-08-04T12:39:16.796Z,0.60
2022-08-04T12:42:20.903Z,0.80
2022-08-04T12:44:54.209Z,0.80
2022-08-04T12:47:36.385Z,0.60
2022-08-04T12:50:05.792Z,0.70
2022-08-04T12:55:33.654Z,0.60
2022-08-04T12:58:02.881Z,0.70
2022-08-04T13:00:41.137Z,0.70
2022-08-04T13:03:19.736Z,0.73
2022-08-04T13:05:48.651Z,0.70
2022-08-04T13:08:21.012Z,0.73
2022-08-04T13:10:52.319Z,0.70
2022-08-04T13:13:21.815Z,0.63
2022-08-04T13:16:03.216Z,0.80
2022-08-04T13:18:34.726Z,0.80
2022-08-04T13:21:20.108Z,0.80
2022-08-04T13:24:20.662Z,0.70
2022-08-04T13:26:54.705Z,0.90
2022-08-04T13:29:57.874Z,1.00
2022-08-04T13:32:20.510Z,0.93
2022-08-04T13:34:52.746Z,0.95
2022-08-04T13:37:26.808Z,0.90
2022-08-04T13:39:56.396Z,0.90
2022-08-04T13:42:26.055Z,0.90
2022-08-04T13:44:59.788Z,1.17
2022-08-04T13:47:34.208Z,1.23
2022-08-04T13:50:23.869Z,0.80
2022-08-04T13:52:53.751Z,0.75
2022-08-04T13:55:28.630Z,1.00
2022-08-04T13:57:58.817Z,1.02
2022-08-04T14:00:37.184Z,1.60
2022-08-04T14:03:23.583Z,1.00
2022-08-04T14:06:15.401Z,1.45
2022-08-04T14:08:54.505Z,1.02
2022-08-04T14:12:08.917Z,1.10
2022-08-04T14:14:30.517Z,0.90
2022-08-04T14:17:03.108Z,1.10
2022-08-04T14:19:46.576Z,0.90
2022-08-04T14:22:26.639Z,0.98
2022-08-04T14:24:59.387Z,0.90
2022-08-04T14:27:29.104Z,0.90
2022-08-04T14:29:56.138Z,1.00
2022-08-04T14:32:26.300Z,1.10
2022-08-04T14:34:53.580Z,1.05
2022-08-04T14:37:22.663Z,1.20
2022-08-04T14:40:17.919Z,1.20
2022-08-04T14:42:55.831Z,1.00
2022-08-04T14:45:54.569Z,1.08
2022-08-04T14:48:22.830Z,1.00
2022-08-04T14:50:50.941Z,1.08
2022-08-04T14:53:20.934Z,1.10
2022-08-04T14:55:49.823Z,1.05
2022-08-04T14:58:39.030Z,1.10
2022-08-04T15:01:12.400Z,1.23
2022-08-04T15:03:48.274Z,1.10
2022-08-04T15:06:22.678Z,1.20
2022-08-04T15:08:55.358Z,1.10
2022-08-04T15:11:24.282Z,1.38
2022-08-04T15:13:53.155Z,1.38
2022-08-04T15:16:21.730Z,1.20
2022-08-04T15:18:49.470Z,1.30
2022-08-04T15:21:17.710Z,1.13
2022-08-04T15:23:44.859Z,1.35
2022-08-04T15:26:25.815Z,1.20
2022-08-04T15:28:57.388Z,1.10
2022-08-04T15:32:06.131Z,1.20
2022-08-04T15:34:12.663Z,1.23
2022-08-04T15:36:56.921Z,1.30
2022-08-04T15:39:53.034Z,1.40
2022-08-04T15:42:39.050Z,1.13
2022-08-04T15:46:41.144Z,1.40
2022-08-04T15:48:11.861Z,1.30
2022-08-04T15:51:04.896Z,1.45
2022-08-04T15:54:03.534Z,1.40
2022-08-04T15:56:35.311Z,1.48
2022-08-04T15:59:02.197Z,1.48
2022-08-04T16:01:29.445Z,1.48
2022-08-04T16:04:01.009Z,1.42
2022-08-04T16:06:29.376Z,1.35
2022-08-04T16:09:05.132Z,1.52
2022-08-04T16:11:40.144Z,1.30
2022-08-04T16:14:11.074Z,1.40
2022-08-04T16:16:45.390Z,1.58
2022-08-04T16:19:51.857Z,1.40
2022-08-04T16:22:40.081Z,1.40
2022-08-04T16:25:10.144Z,1.50
2022-08-04T16:27:44.563Z,1.40
2022-08-04T16:30:14.432Z,1.33
2022-08-04T16:32:46.922Z,1.52
2022-08-04T16:35:26.401Z,1.63
2022-08-04T16:37:55.906Z,1.60
2022-08-04T16:40:39.072Z,1.67
2022-08-04T16:43:18.475Z,1.52
2022-08-04T16:45:48.400Z,1.52
2022-08-04T16:48:17.405Z,1.30
2022-08-04T16:50:52.925Z,1.40
2022-08-04T16:53:51.548Z,1.45
2022-08-04T16:56:10.430Z,1.70
2022-08-04T16:58:37.841Z,1.50
2022-08-04T17:01:21.782Z,1.40
2022-08-04T17:04:04.927Z,1.40
2022-08-04T17:06:41.767Z,1.70
2022-08-04T17:09:14.194Z,1.58
2022-08-04T17:11:43.186Z,1.70
2022-08-04T17:14:10.767Z,1.65
2022-08-04T17:16:40.573Z,2.00
2022-08-04T17:19:23.653Z,2.20
2022-08-04T17:22:04.365Z,1.45
2022-08-04T17:24:38.165Z,1.70
2022-08-04T17:28:20.120Z,1.42
2022-08-04T17:29:53.608Z,1.40
2022-08-04T17:32:22.734Z,1.50
2022-08-04T17:35:00.477Z,1.70
2022-08-04T17:37:39.563Z,1.60
2022-08-04T17:40:26.177Z,1.75
2022-08-04T17:44:01.390Z,1.90
2022-08-04T17:46:30.045Z,1.80
2022-08-04T17:49:02.762Z,1.60
2022-08-04T17:52:04.343Z,1.98
2022-08-04T17:54:29.979Z,2.08
2022-08-04T17:57:19.470Z,1.63
2022-08-04T17:59:57.810Z,1.70
2022-08-04T18:02:32.209Z,1.33
2022-08-04T18:05:07.372Z,1.55
2022-08-04T18:08:39.049Z,1.67
2022-08-04T18:10:51.755Z,1.70
2022-08-04T18:13:26.944Z,1.45
2022-08-04T18:16:05.284Z,2.08
2022-08-04T18:18:33.126Z,1.80
2022-08-04T18:21:02.878Z,2.05
2022-08-04T18:23:31.323Z,1.80
2022-08-04T18:25:58.571Z,1.73
2022-08-04T18:28:26.919Z,1.70
2022-08-04T18:30:56.139Z,2.28
2022-08-04T18:33:39.846Z,10.57
2022-08-04T18:36:32.467Z,13.68
2022-08-04T18:38:58.872Z,12.98
2022-08-04T18:42:00.803Z,9.40
2022-08-04T18:44:17.149Z,4.97
2022-08-04T18:46:55.750Z,4.70
2022-08-04T18:51:01.290Z,4.05
2022-08-04T18:52:15.010Z,2.88
2022-08-04T18:54:43.080Z,3.85
2022-08-04T18:57:32.621Z,3.20
2022-08-04T18:59:57.926Z,2.90
2022-08-04T19:02:28.320Z,2.60
2022-08-04T19:04:56.537Z,2.30
2022-08-04T19:07:30.033Z,2.10
2022-08-04T19:09:59.757Z,1.95
2022-08-04T19:12:28.925Z,2.17
2022-08-04T19:15:08.984Z,2.30
2022-08-04T19:17:53.444Z,2.10
2022-08-04T19:20:28.199Z,5.17
2022-08-04T19:24:11.123Z,6.28
2022-08-04T19:26:01.562Z,3.63
2022-08-04T19:28:36.025Z,4.80
2022-08-04T19:31:09.526Z,3.40
2022-08-04T19:33:58.128Z,4.57
2022-08-04T19:36:28.747Z,2.80
2022-08-04T19:39:00.679Z,5.10
2022-08-04T19:41:29.701Z,4.30
2022-08-04T19:43:58.223Z,3.00
2022-08-04T19:46:28.552Z,3.03
2022-08-04T19:48:59.745Z,2.83
2022-08-04T19:51:29.772Z,3.67
2022-08-04T19:54:03.821Z,4.10
2022-08-04T19:56:40.223Z,3.77
2022-08-04T19:59:09.643Z,2.97
2022-08-04T20:01:44.068Z,3.20
2022-08-04T20:04:13.038Z,3.20
2022-08-04T20:06:39.939Z,3.00
2022-08-04T20:09:24.869Z,2.90
2022-08-04T20:11:56.632Z,2.73
2022-08-04T20:14:32.673Z,3.10
2022-08-04T20:19:51.745Z,3.37
2022-08-04T20:22:52.830Z,3.70
2022-08-04T20:25:35.722Z,3.47
2022-08-04T20:28:00.496Z,3.77
2022-08-04T20:30:29.271Z,3.73
2022-08-04T20:32:56.891Z,3.60
2022-08-04T20:35:27.105Z,3.30
2022-08-04T20:37:55.057Z,3.10
2022-08-04T20:40:27.665Z,3.00
2022-08-04T20:42:54.557Z,2.73
2022-08-04T20:45:24.329Z,2.90
2022-08-04T20:48:11.261Z,2.70
2022-08-04T20:50:38.214Z,2.90
2022-08-04T20:53:16.359Z,3.60
2022-08-04T20:55:54.866Z,2.80
2022-08-04T20:58:27.131Z,2.80
2022-08-04T21:00:55.100Z,2.40
2022-08-04T21:03:38.545Z,2.70
2022-08-04T21:06:09.456Z,2.90
2022-08-04T21:08:37.286Z,3.10
2022-08-04T21:11:06.892Z,3.20
2022-08-04T21:13:50.804Z,3.30
2022-08-04T21:16:55.443Z,3.27
2022-08-04T21:19:12.963Z,3.17
2022-08-04T21:21:41.566Z,4.00
2022-08-04T21:24:09.525Z,4.53
2022-08-04T21:26:37.485Z,17.43
2022-08-04T21:29:05.005Z,5.37
2022-08-04T21:31:36.786Z,4.03
2022-08-04T21:34:17.349Z,4.37
2022-08-04T21:37:04.570Z,3.83
2022-08-04T21:39:32.528Z,3.97
2022-08-04T21:44:46.610Z,4.13
2022-08-04T21:47:22.405Z,3.57
2022-08-04T21:49:55.925Z,4.03
2022-08-04T21:52:24.440Z,3.57
2022-08-04T21:54:54.476Z,3.37
2022-08-04T21:57:25.147Z,3.57
2022-08-04T21:59:52.711Z,3.47
2022-08-04T22:02:19.823Z,3.33
2022-08-04T22:04:48.536Z,3.67
2022-08-04T22:07:16.362Z,3.03
2022-08-04T22:10:00.083Z,3.03
2022-08-04T22:12:27.469Z,4.13
2022-08-04T22:14:59.431Z,3.47
2022-08-04T22:17:35.129Z,3.77
2022-08-04T22:20:04.511Z,3.50
2022-08-04T22:22:34.840Z,4.00
2022-08-04T22:25:12.497Z,3.80
2022-08-04T22:28:00.931Z,4.30
2022-08-04T22:30:33.077Z,3.27
2022-08-04T22:33:00.815Z,4.20
2022-08-04T22:35:35.655Z,4.50
2022-08-04T22:38:24.421Z,4.03
2022-08-04T22:41:05.387Z,4.20
2022-08-04T22:43:34.599Z,4.03
2022-08-04T22:46:05.299Z,3.83
2022-08-04T22:48:35.474Z,3.97
2022-08-04T22:51:03.167Z,4.30
2022-08-04T22:53:30.904Z,3.83
2022-08-04T22:56:09.602Z,28.23
2022-08-04T22:58:51.097Z,6.60
2022-08-04T23:01:18.906Z,3.87
2022-08-04T23:03:55.296Z,4.00
2022-08-04T23:06:24.358Z,3.80
2022-08-04T23:08:51.844Z,3.90
2022-08-04T23:11:18.853Z,3.70
2022-08-04T23:13:46.026Z,3.73
2022-08-04T23:16:17.693Z,3.67
2022-08-04T23:18:45.341Z,3.43
2022-08-04T23:21:16.495Z,3.40
2022-08-04T23:23:46.873Z,3.73
2022-08-04T23:26:28.520Z,3.40
2022-08-04T23:28:56.586Z,3.50
2022-08-04T23:31:24.615Z,3.50
2022-08-04T23:33:52.377Z,3.53
2022-08-04T23:36:30.120Z,3.20
2022-08-04T23:39:05.869Z,3.90
2022-08-04T23:41:55.324Z,3.27
2022-08-04T23:44:24.839Z,3.67
2022-08-04T23:47:03.285Z,3.90
2022-08-04T23:49:40.607Z,3.93
2022-08-04T23:52:27.731Z,3.53
2022-08-04T23:54:58.575Z,3.60
2022-08-04T23:57:31.182Z,3.63
